Flight Track Log - Related Links

Times and Time Zones

All times are in EDT time to prevent confusion due to time zone crossing. See the DAL3688 flight status page for this flight to view local times or setup timezone preferences in your user account.

Time Position Orientation Groundspeed Altitude Reporting Facility
EDT Latitude Longitude Course Direction KTS MPH feet Rate Location/Type
Fri 12:58:42 PM 40.1503 -76.7347 247° West 158 182 3,400  Level New York Center
Fri 12:59:39 PM 40.1278 -76.8089 248° West 155 178 5,200 2,034 Climbing New York Center
Fri 01:00:40 PM 40.1192 -76.8950 263° West 215 247 7,400 2,361 Climbing New York Center
Fri 01:01:41 PM 40.1167 -76.9842 268° West 253 291 10,000 1,672 Climbing New York Center
Fri 01:02:42 PM 40.1111 -77.0869 266° West 261 300 10,800 1,361 Climbing New York Center
Fri 01:03:00 PM 40.1717 -77.3814 241° Southwest  Level FlightAware Approximate
Fri 01:03:40 PM 40.0744 -77.1867 244° Southwest 296 341 12,700  Level New York Center
Fri 01:04:00 PM 40.1314 -77.4894 247° West  Level FlightAware Approximate
Fri 01:04:40 PM 40.0558 -77.2989 258° West 307 353 14,400  Level New York Center
Fri 01:06:32 PM 40.0547 -77.5072 270° West 319 367 16,400 1,214 Climbing Cleveland Center
Fri 01:07:33 PM 40.0517 -77.6267 268° West 330 380 17,900 1,636 Climbing Cleveland Center
Fri 01:08:33 PM 40.0506 -77.7406 269° West 330 380 19,700 1,300 Climbing Cleveland Center
Fri 01:09:33 PM 40.0450 -77.8575 266° West 330 380 20,500 850 Climbing Cleveland Center
Fri 01:10:33 PM 40.0414 -77.9742 268° West 330 380 21,400 857 Climbing Cleveland Center
Fri 01:11:32 PM 40.0400 -78.0964 269° West 330 380 22,200 756 Climbing Cleveland Center
Fri 01:12:32 PM 40.0364 -78.2186 268° West 330 380 22,900 650 Climbing Cleveland Center
Fri 01:13:32 PM 40.0347 -78.3406 269° West 335 386 23,500 545 Climbing Cleveland Center
Fri 01:14:33 PM 40.0331 -78.4708 269° West 347 399 24,000 595 Climbing Cleveland Center
Fri 01:15:33 PM 40.0664 -78.5919 290° West 354 407 24,700 655 Climbing Cleveland Center
Fri 01:16:32 PM 40.1039 -78.7183 291° West 354 407 25,300 600 Climbing Cleveland Center
Fri 01:17:33 PM 40.1394 -78.8478 290° West 365 420 25,900 347 Climbing Cleveland Center
Fri 01:18:33 PM 40.1767 -78.9744 291° West 365 420 26,000 50 Climbing Cleveland Center
Fri 01:19:32 PM 40.2161 -79.1067 291° West 375 432 26,000  Level Cleveland Center
Fri 01:20:33 PM 40.2531 -79.2392 290° West 380 437 26,000  Level Cleveland Center
Fri 01:21:32 PM 40.2964 -79.3800 292° West 385 443 26,000  Level Cleveland Center
Fri 01:22:32 PM 40.3331 -79.5128 290° West 385 443 26,000  Level Cleveland Center
Fri 01:23:33 PM 40.3697 -79.6431 290° West 385 443 26,000  Level Cleveland Center
Fri 01:24:33 PM 40.4061 -79.7733 290° West 385 443 26,000  Level Cleveland Center
Fri 01:25:32 PM 40.4403 -79.8928 291° West 385 443 26,000  Level Cleveland Center
Fri 01:26:33 PM 40.4744 -80.0208 289° West 380 437 26,000  Level Cleveland Center
Fri 01:27:32 PM 40.5103 -80.1461 291° West 380 437 26,000  Level Cleveland Center
Fri 01:28:33 PM 40.5461 -80.2825 289° West 385 443 26,000  Level Cleveland Center
Fri 01:29:32 PM 40.5819 -80.4056 291° West 380 437 26,000  Level Cleveland Center
Fri 01:30:32 PM 40.6194 -80.5503 289° West 380 437 26,000  Level Cleveland Center
Fri 01:31:32 PM 40.6550 -80.6817 290° West 380 437 26,000  Level Cleveland Center
Fri 01:32:32 PM 40.6986 -80.7914 298° West 380 437 26,000  Level Cleveland Center
Fri 01:33:33 PM 40.7589 -80.9119 303° West 380 437 26,000  Level Cleveland Center
Fri 01:34:32 PM 40.8167 -81.0331 302° West 394 453 26,000  Level Cleveland Center
Fri 01:35:33 PM 40.8808 -81.1681 302° West 404 465 26,000  Level Cleveland Center
Fri 01:36:33 PM 40.9344 -81.2786 303° West 404 465 26,000  Level Cleveland Center
Fri 01:37:33 PM 40.9919 -81.4000 302° West 399 459 26,000 -403 Level Cleveland Center
Fri 01:38:32 PM 41.0494 -81.5219 302° West 393 452 25,200 -900 Descending Cleveland Center
Fri 01:39:33 PM 41.1067 -81.6442 302° West 393 452 24,200 -600 Descending Cleveland Center
Fri 01:40:32 PM 41.1681 -81.7608 305° West 393 452 24,000 -101 Descending Cleveland Center
Fri 01:41:32 PM 41.2250 -81.8806 302° West 393 452 24,000  Level Cleveland Center
Fri 01:42:33 PM 41.2819 -81.9978 303° West 393 452 24,000 -650 Level Cleveland Center
Fri 01:43:32 PM 41.3428 -82.1347 301° West 394 453 22,700 -1,400 Descending Cleveland Center
Fri 01:44:33 PM 41.4058 -82.2469 307° West 389 448 21,200 -1,450 Descending Cleveland Center
Fri 01:45:32 PM 41.4650 -82.3428 310° West 389 448 19,800 -1,815 Descending Cleveland Center
Fri 01:46:32 PM 41.5297 -82.4525 308° West 379 436 17,600 -2,033 Descending Cleveland Center
Fri 01:47:33 PM 41.5947 -82.5628 308° West 374 430 15,700 -2,000 Descending Cleveland Center
Fri 01:48:05 PM 41.6353 -82.6308 309° West 374 430 14,500 -2,000 Descending Cleveland Center
Fri 01:48:33 PM 41.6636 -82.6789 308° West 374 430 13,700 -1,869 Descending Cleveland Center
Fri 01:49:06 PM 41.6958 -82.7356 307° West 364 419 12,600 -1,600 Descending Cleveland Center
Fri 01:49:33 PM 41.7261 -82.7839 310° West 374 430 12,100 -492 Descending Cleveland Center
Fri 01:50:07 PM 41.7689 -82.8356 318° Northwest 343 395 12,100 -102 Level Cleveland Center
Fri 01:50:32 PM 41.7956 -82.8669 319° Northwest 352 405 12,000  Descending Cleveland Center
Fri 01:51:08 PM 41.8403 -82.9189 319° Northwest 336 387 12,100 98 Climbing Cleveland Center
Fri 01:51:33 PM 41.8647 -82.9503 316° Northwest 344 396 12,100  Level Cleveland Center
Fri 01:52:09 PM 41.9094 -83.0022 319° Northwest 335 386 12,100  Level Cleveland Center
Fri 01:52:32 PM 41.9339 -83.0339 316° Northwest 339 390 12,100  Level Cleveland Center
Fri 01:53:10 PM 41.9806 -83.0889 319° Northwest 342 394 12,100  Level Cleveland Center
Fri 01:53:33 PM 42.0069 -83.1206 318° Northwest 339 390 12,100 -689 Level Cleveland Center
Fri 01:54:11 PM 42.0536 -83.1756 319° Northwest 351 404 11,400 -1,000 Descending Cleveland Center
Fri 01:54:33 PM 42.0781 -83.2072 316° Northwest 339 390 11,100 -400 Descending Cleveland Center
Fri 01:55:11 PM 42.1167 -83.2508 320° Northwest 295 339 11,000 -203 Descending Cleveland Center
Fri 01:55:32 PM 42.1433 -83.2603 345° North 281 323 10,900 -906 Descending Cleveland Center
Fri 01:56:04 PM 42.1831 -83.2350 25° Northeast 277 319 10,200 -1,412 Descending FAA TRACON SMA TRACON (SMA)
Fri 01:56:23 PM 42.2031 -83.2197 30° Northeast 271 312 9,700 -1,350 Descending FAA TRACON SMA TRACON (SMA)
Fri 01:56:44 PM 42.2231 -83.2044 29° Northeast 271 312 9,300 -1,317 Descending FAA TRACON SMA TRACON (SMA)
Fri 01:57:04 PM 42.2483 -83.1858 29° Northeast 270 311 8,800 -1,500 Descending FAA TRACON SMA TRACON (SMA)
Fri 01:57:24 PM 42.2683 -83.1714 28° Northeast 267 307 8,300 -1,350 Descending FAA TRACON SMA TRACON (SMA)
Fri 01:57:44 PM 42.2886 -83.1569 28° Northeast 267 307 7,900 -1,200 Descending FAA TRACON SMA TRACON (SMA)
Fri 01:58:04 PM 42.3133 -83.1389 28° Northeast 265 305 7,500 -1,350 Descending FAA TRACON SMA TRACON (SMA)
Fri 01:58:24 PM 42.3328 -83.1253 27° Northeast 260 299 7,000 -1,500 Descending FAA TRACON SMA TRACON (SMA)
Fri 01:58:44 PM 42.3525 -83.1114 27° Northeast 260 299 6,500 -1,231 Descending FAA TRACON SMA TRACON (SMA)
Fri 01:59:03 PM 42.3761 -83.0942 28° Northeast 255 293 6,200 -615 Descending FAA TRACON SMA TRACON (SMA)
Fri 01:59:23 PM 42.3942 -83.0803 30° Northeast 246 283 6,100 -150 Descending FAA TRACON SMA TRACON (SMA)
Fri 01:59:43 PM 42.4097 -83.0678 31° Northeast 241 277 6,100  Level FAA TRACON SMA TRACON (SMA)
Fri 02:00:03 PM 42.4339 -83.0500 28° Northeast 241 277 6,100  Level FAA TRACON SMA TRACON (SMA)
Fri 02:00:23 PM 42.4519 -83.0361 30° Northeast 244 281 6,100 -150 Level FAA TRACON SMA TRACON (SMA)
Fri 02:00:43 PM 42.4700 -83.0267 21° North 233 268 6,000  Descending FAA TRACON SMA TRACON (SMA)
Fri 02:01:03 PM 42.4906 -83.0456 326° Northwest 221 254 6,100 150 Climbing FAA TRACON SMA TRACON (SMA)
Fri 02:01:23 PM 42.4994 -83.0672 299° West 219 252 6,100  Level FAA TRACON SMA TRACON (SMA)
Fri 02:01:43 PM 42.5036 -83.0961 281° West 212 244 6,100  Level FAA TRACON SMA TRACON (SMA)
Fri 02:02:04 PM 42.4953 -83.1164 241° Southwest 211 243 6,100  Level FAA TRACON SMA TRACON (SMA)
Fri 02:02:24 PM 42.4822 -83.1400 233° Southwest 213 245 6,100  Level FAA TRACON SMA TRACON (SMA)
Fri 02:02:44 PM 42.4675 -83.1508 208° Southwest 205 236 6,100 -150 Level FAA TRACON SMA TRACON (SMA)
Fri 02:03:04 PM 42.4503 -83.1631 208° Southwest 182 209 6,000 -300 Descending FAA TRACON SMA TRACON (SMA)
Fri 02:03:24 PM 42.4342 -83.1753 209° Southwest 186 214 5,900 -750 Descending FAA TRACON SMA TRACON (SMA)
Fri 02:03:44 PM 42.4208 -83.1853 209° Southwest 184 212 5,500 -1,200 Descending FAA TRACON SMA TRACON (SMA)
Fri 02:04:04 PM 42.4053 -83.1969 209° Southwest 172 198 5,100 -1,050 Descending FAA TRACON SMA TRACON (SMA)
Fri 02:04:24 PM 42.3931 -83.2058 208° Southwest 173 199 4,800 -1,050 Descending FAA TRACON SMA TRACON (SMA)
Fri 02:04:44 PM 42.3767 -83.2178 208° Southwest 174 200 4,400 -1,050 Descending FAA TRACON SMA TRACON (SMA)
Fri 02:05:04 PM 42.3644 -83.2272 210° Southwest 172 198 4,100 -900 Descending FAA TRACON SMA TRACON (SMA)

Login

Don't have an account? Register now (free) for customized features, flight alerts, and more!